sensor_id;sensor_type;location;lat;lon;timestamp;P1;durP1;ratioP1;P2;durP2;ratioP2
12373;SDS011;6251;51.762;8.660;2023-07-13T06:15:18;2.35;;;1.90;;
12373;SDS011;6251;51.762;8.660;2023-07-13T06:25:20;3.22;;;1.90;;
12373;SDS011;6251;51.762;8.660;2023-07-13T06:35:21;3.78;;;1.83;;
12373;SDS011;6251;51.762;8.660;2023-07-13T07:06:22;6.75;;;2.22;;
12373;SDS011;6251;51.762;8.660;2023-07-13T07:16:24;5.22;;;2.08;;
12373;SDS011;6251;51.762;8.660;2023-07-13T07:26:25;5.75;;;2.12;;
12373;SDS011;6251;51.762;8.660;2023-07-13T07:36:26;5.80;;;2.33;;
12373;SDS011;6251;51.762;8.660;2023-07-13T07:46:29;5.82;;;2.40;;
12373;SDS011;6251;51.762;8.660;2023-07-13T07:56:32;6.28;;;2.45;;
12373;SDS011;6251;51.762;8.660;2023-07-13T08:06:33;3.60;;;1.85;;
12373;SDS011;6251;51.762;8.660;2023-07-13T08:16:34;3.72;;;1.90;;
12373;SDS011;6251;51.762;8.660;2023-07-13T08:26:35;3.30;;;2.15;;
12373;SDS011;6251;51.762;8.660;2023-07-13T08:36:36;2.97;;;2.22;;
12373;SDS011;6251;51.762;8.660;2023-07-13T08:46:38;3.60;;;2.37;;
12373;SDS011;6251;51.762;8.660;2023-07-13T08:56:43;5.50;;;3.75;;
12373;SDS011;6251;51.762;8.660;2023-07-13T09:27:30;6.80;;;2.30;;
12373;SDS011;6251;51.762;8.660;2023-07-13T09:37:35;2.62;;;2.10;;
12373;SDS011;6251;51.762;8.660;2023-07-13T09:47:39;2.65;;;1.85;;
12373;SDS011;6251;51.762;8.660;2023-07-13T09:57:40;5.00;;;2.17;;
12373;SDS011;6251;51.762;8.660;2023-07-13T10:07:47;2.55;;;1.90;;
12373;SDS011;6251;51.762;8.660;2023-07-13T10:17:48;4.12;;;2.08;;
12373;SDS011;6251;51.762;8.660;2023-07-13T10:27:50;2.17;;;1.70;;
12373;SDS011;6251;51.762;8.660;2023-07-13T10:37:59;2.67;;;1.90;;
12373;SDS011;6251;51.762;8.660;2023-07-13T10:48:06;2.17;;;1.70;;
12373;SDS011;6251;51.762;8.660;2023-07-13T10:58:22;4.95;;;1.90;;
12373;SDS011;6251;51.762;8.660;2023-07-13T11:08:33;4.37;;;1.87;;
12373;SDS011;6251;51.762;8.660;2023-07-13T11:18:39;2.22;;;1.50;;
12373;SDS011;6251;51.762;8.660;2023-07-13T11:28:41;2.62;;;1.60;;
12373;SDS011;6251;51.762;8.660;2023-07-13T11:38:51;1.67;;;1.58;;
12373;SDS011;6251;51.762;8.660;2023-07-13T11:49:00;2.97;;;1.80;;
12373;SDS011;6251;51.762;8.660;2023-07-13T11:59:05;1.92;;;1.70;;
12373;SDS011;6251;51.762;8.660;2023-07-13T12:09:10;12.00;;;2.00;;
12373;SDS011;6251;51.762;8.660;2023-07-13T12:19:26;2.12;;;1.40;;
12373;SDS011;6251;51.762;8.660;2023-07-13T12:29:28;3.15;;;2.00;;
12373;SDS011;6251;51.762;8.660;2023-07-13T12:39:33;2.87;;;1.83;;
12373;SDS011;6251;51.762;8.660;2023-07-13T12:49:39;2.37;;;1.80;;
12373;SDS011;6251;51.762;8.660;2023-07-13T12:59:41;3.90;;;3.03;;
12373;SDS011;6251;51.762;8.660;2023-07-13T13:09:42;2.50;;;2.03;;
12373;SDS011;6251;51.762;8.660;2023-07-13T13:19:43;3.28;;;2.10;;
12373;SDS011;6251;51.762;8.660;2023-07-13T13:29:44;2.10;;;1.90;;
12373;SDS011;6251;51.762;8.660;2023-07-13T13:39:46;4.90;;;2.20;;
12373;SDS011;6251;51.762;8.660;2023-07-13T13:49:46;2.30;;;2.10;;
12373;SDS011;6251;51.762;8.660;2023-07-13T13:59:47;1.73;;;1.60;;
12373;SDS011;6251;51.762;8.660;2023-07-13T14:09:48;2.20;;;2.00;;
12373;SDS011;6251;51.762;8.660;2023-07-13T14:19:52;3.08;;;1.62;;
12373;SDS011;6251;51.762;8.660;2023-07-13T14:29:57;3.00;;;2.00;;
12373;SDS011;6251;51.762;8.660;2023-07-13T14:39:57;2.10;;;2.00;;
12373;SDS011;6251;51.762;8.660;2023-07-13T15:00:21;4.72;;;2.72;;
12373;SDS011;6251;51.762;8.660;2023-07-13T15:10:26;4.68;;;2.80;;
12373;SDS011;6251;51.762;8.660;2023-07-13T15:20:31;3.42;;;3.03;;
12373;SDS011;6251;51.762;8.660;2023-07-13T15:30:42;4.43;;;3.00;;
12373;SDS011;6251;51.762;8.660;2023-07-13T15:40:45;4.70;;;4.03;;
12373;SDS011;6251;51.762;8.660;2023-07-13T15:50:47;4.37;;;4.10;;
12373;SDS011;6251;51.762;8.660;2023-07-13T16:00:48;5.70;;;5.20;;
12373;SDS011;6251;51.762;8.660;2023-07-13T16:10:51;5.50;;;5.03;;
12373;SDS011;6251;51.762;8.660;2023-07-13T16:31:13;5.65;;;5.15;;
12373;SDS011;6251;51.762;8.660;2023-07-13T16:41:14;5.97;;;5.47;;
12373;SDS011;6251;51.762;8.660;2023-07-13T16:51:14;5.45;;;4.85;;
12373;SDS011;6251;51.762;8.660;2023-07-13T17:01:15;5.85;;;5.32;;
12373;SDS011;6251;51.762;8.660;2023-07-13T17:11:16;5.97;;;5.47;;
12373;SDS011;6251;51.762;8.660;2023-07-13T17:21:16;7.30;;;6.70;;
12373;SDS011;6251;51.762;8.660;2023-07-13T17:31:18;6.03;;;5.47;;
12373;SDS011;6251;51.762;8.660;2023-07-13T17:41:21;5.07;;;4.68;;
12373;SDS011;6251;51.762;8.660;2023-07-13T17:51:24;4.75;;;4.45;;
12373;SDS011;6251;51.762;8.660;2023-07-13T18:01:27;4.12;;;3.92;;
12373;SDS011;6251;51.762;8.660;2023-07-13T18:11:30;4.78;;;4.45;;
12373;SDS011;6251;51.762;8.660;2023-07-13T18:21:32;5.20;;;4.72;;
12373;SDS011;6251;51.762;8.660;2023-07-13T18:31:34;5.70;;;5.20;;
12373;SDS011;6251;51.762;8.660;2023-07-13T18:41:36;6.87;;;6.12;;
12373;SDS011;6251;51.762;8.660;2023-07-13T18:51:36;6.53;;;5.97;;
12373;SDS011;6251;51.762;8.660;2023-07-13T19:01:37;8.52;;;7.78;;
12373;SDS011;6251;51.762;8.660;2023-07-13T19:11:37;7.25;;;6.68;;
12373;SDS011;6251;51.762;8.660;2023-07-13T19:21:38;7.35;;;6.78;;
12373;SDS011;6251;51.762;8.660;2023-07-13T19:31:39;7.85;;;7.15;;
12373;SDS011;6251;51.762;8.660;2023-07-13T19:41:40;7.32;;;6.72;;
12373;SDS011;6251;51.762;8.660;2023-07-13T19:51:41;7.75;;;7.05;;
12373;SDS011;6251;51.762;8.660;2023-07-13T20:01:41;6.72;;;6.12;;
12373;SDS011;6251;51.762;8.660;2023-07-13T20:11:43;5.82;;;5.43;;
12373;SDS011;6251;51.762;8.660;2023-07-13T20:21:45;6.78;;;5.43;;
12373;SDS011;6251;51.762;8.660;2023-07-13T20:31:46;6.32;;;5.62;;
12373;SDS011;6251;51.762;8.660;2023-07-13T20:41:48;5.87;;;5.47;;
12373;SDS011;6251;51.762;8.660;2023-07-13T20:51:48;4.95;;;4.60;;
12373;SDS011;6251;51.762;8.660;2023-07-13T23:04:35;5.97;;;5.47;;
12373;SDS011;6251;51.762;8.660;2023-07-13T23:14:36;6.50;;;5.90;;
